ADDS METAR Data INFO
IDs: Format: Raw Decoded Include TAF

Data at: 1935 UTC 19 Jul 2018

KICT 191853Z 15005KT 10SM FEW250 36/24 A2983 RMK AO2 SLP083 T03560239
KICT 191753Z 18008KT 10SM FEW250 34/24 A2983 RMK AO2 SLP084 T03390244 10339 20228 58015
KICT 191653Z 22007KT 10SM FEW250 33/25 A2987 RMK AO2 SLP096 T03280250
KICT 191553Z 22007KT 10SM FEW250 31/24 A2987 RMK AO2 SLP099 T03110244
KICT 191453Z 17010KT 10SM FEW250 29/24 A2988 RMK AO2 SLP100 T02890244 58007
KICT 191353Z 19009KT 10SM FEW250 27/24 A2989 RMK AO2 SLP105 T02720239
KICT 191253Z 16004KT 8SM FEW250 25/24 A2990 RMK AO2 SLP107 T02500244
KICT 191153Z 09004KT 10SM FEW250 23/22 A2990 RMK AO2 SLP108 T02280222 10261 20222 53003
KICT 191053Z 00000KT 10SM FEW250 24/23 A2989 RMK AO2 SLP106 T02390233
KICT 190953Z 00000KT 10SM FEW250 23/22 A2989 RMK AO2 SLP104 T02330222
KICT 190853Z 23003KT 10SM FEW250 25/23 A2989 RMK AO2 SLP104 T02500228 55008
KICT 190753Z 00000KT 10SM FEW250 25/23 A2989 RMK AO2 SLP103 T02500228
KICT 190653Z 18010KT 10SM FEW250 26/23 A2988 RMK AO2 SLP100 T02610228
KICT 190553Z 17006KT 10SM FEW250 26/23 A2992 RMK AO2 SLP113 T02610233 10317 20261 403390222 51004
KICT 190453Z 16006KT 10SM FEW250 27/23 A2992 RMK AO2 SLP113 T02670233
KICT 190353Z 20005KT 10SM FEW220 27/24 A2991 RMK AO2 SLP112 T02670239
KICT 190253Z 16004KT 10SM FEW050 FEW080 FEW220 28/24 A2990 RMK AO2 SLP110 T02830239 53003
KICT 190153Z 20004KT 10SM FEW050TCU SCT080 SCT220 28/24 A2989 RMK AO2 SLP105 TCU VC N CB DSNT W MOV SE T02780239
KICT 190053Z 19006KT 10SM FEW025 FEW220 31/24 A2989 RMK AO2 SLP104 T03110239
KICT 182353Z 22005KT 10SM SCT049 SCT220 32/24 A2989 RMK AO2 SLP106 T03170239 10339 20306 58008
KICT 182253Z VRB03KT 10SM SCT045 SCT200 33/22 A2990 RMK AO2 SLP109 T03330217
KICT 182153Z VRB04KT 10SM FEW045 FEW100 FEW150 FEW220 33/22 A2991 RMK AO2 SLP112 T03280222
KICT 182053Z 18006KT 10SM FEW035 SCT100 BKN150 BKN190 BKN220 33/23 A2992 RMK AO2 SLP115 T03280233 56020
KICT 181953Z 16004KT 10SM SCT036 SCT100 BKN180 32/22 A2993 RMK AO2 SLP119 CB AND SHRA DSIPTD T03220222
KICT 181853Z VRB04KT 10SM FEW035 SCT043 SCT090 SCT160 32/23 A2996 RMK AO2 SLP129 CB DSNT SE-S SHRA DSNT SE-S MOVG SLO SE T03170233
KICT 181753Z 00000KT 10SM SCT033 SCT100 SCT160 BKN220 31/22 A2998 RMK AO2 SLP135 CB DSNT NW-N SHRA DSNT NW-N MOVG SLO SE T03110222 10317 20228 58003
KICT 181653Z 00000KT 10SM SCT030 SCT120 SCT160 BKN220 31/22 A2999 RMK AO2 SLP140 ACC S AND NW T03060222
KICT 181553Z VRB03KT 10SM FEW030 FEW090 SCT120 SCT160 BKN220 29/22 A2999 RMK AO2 SLP137 ACC S-SW AND NW T02940222
KICT 181453Z VRB05KT 10SM FEW090 FEW120 SCT160 BKN220 27/23 A2999 RMK AO2 SLP139 ACC S-W T02720228 51002
KICT 181353Z 04003KT 10SM FEW090 FEW120 SCT180 BKN250 26/23 A2998 RMK AO2 SLP137 ACC S-W T02560228
KICT 181253Z 11003KT 10SM SCT090 SCT120 BKN180 BKN250 24/22 A2999 RMK AO2 SLP139 ACC S-W T02390222
KICT 181153Z 16003KT 10SM BKN085 BKN120 BKN180 23/22 A2998 RMK AO2 SLP137 60019 70020 T02280222 10250 20222 55005
KICT 181053Z 00000KT 10SM BKN085 BKN110 23/22 A2998 RMK AO2 SLP136 T02280222
KICT 180953Z COR 00000KT 10SM FEW100 BKN150 23/22 A2998 RMK AO2 SLP135 T02280217
KICT 180853Z 21003KT 10SM BKN090 23/22 A3000 RMK AO2 SLP144 60019 T02280217 56016
KICT 180753Z 18006KT 10SM SCT010 BKN200 23/23 A3000 RMK AO2 SLP143 OCNL LTGIC DSNT SE CB DSNT SE MOV E T02330228
KICT 180741Z 19006KT 10SM BKN010 BKN200 23/23 A3000 RMK AO2 CIG 006V013 OCNL LTGIC DSNT SE CB DSNT SE MOV E T02330228